Time;durP1;ratioP1;P1;durP2;ratioP2;P2;SDS_P1;SDS_P2;PMS_P1;PMS_P2;Temp;Humidity;BMP_temperature;BMP_pressure;BME280_temperature;BME280_humidity;BME280_pressure;Samples;Min_cycle;Max_cycle;Signal;HPM_P1;HPM_P2
2023/10/13 00:00:41;;;;;;;11.65;5.50;;;;;;;10.66;100.00;99660.16;4984728;28;20037;-73
2023/10/13 00:03:14;;;;;;;18.38;7.45;;;;;;;10.66;100.00;99646.72;5015603;28;20107;-74
2023/10/13 00:05:43;;;;;;;13.13;6.28;;;;;;;10.66;100.00;99652.09;5016368;28;20489;-74
2023/10/13 00:08:13;;;;;;;25.67;11.05;;;;;;;10.65;100.00;99647.75;5014971;28;20040;-74
2023/10/13 00:10:39;;;;;;;14.07;7.70;;;;;;;10.66;100.00;99649.41;4983057;28;20120;-73
2023/10/13 00:13:22;;;;;;;7.43;4.43;;;;;;;10.66;100.00;99650.22;4983248;28;20053;-74
2023/10/13 00:15:58;;;;;;;9.45;4.72;;;;;;;10.67;100.00;99635.78;5005064;28;20021;-73
2023/10/13 00:18:33;;;;;;;10.52;4.82;;;;;;;10.64;100.00;99622.75;5003961;28;20045;-74
2023/10/13 00:21:45;;;;;;;11.88;5.22;;;;;;;10.62;100.00;99618.59;5002969;28;20144;-74
2023/10/13 00:23:54;;;;;;;9.48;4.25;;;;;;;10.59;100.00;99613.63;4998176;28;20046;-73
2023/10/13 00:26:42;;;;;;;11.88;4.50;;;;;;;10.53;100.00;99605.34;5019015;28;20099;-73
2023/10/13 00:31:42;;;;;;;7.93;2.83;;;;;;;10.53;100.00;99594.59;5018907;28;20044;-74
2023/10/13 00:34:19;;;;;;;1.73;1.02;;;;;;;10.48;100.00;99594.38;5003041;28;20108;-74
2023/10/13 00:39:36;;;;;;;4.97;1.48;;;;;;;10.40;100.00;99582.97;5005438;28;20072;-73
2023/10/13 00:42:07;;;;;;;2.10;1.15;;;;;;;10.32;100.00;99573.28;5002517;28;20469;-74
2023/10/13 00:44:42;;;;;;;3.28;2.40;;;;;;;10.29;100.00;99573.66;5002797;28;20420;-73
2023/10/13 00:47:16;;;;;;;2.38;1.15;;;;;;;10.28;100.00;99566.63;5002535;28;20043;-74
2023/10/13 00:49:47;;;;;;;0.35;0.35;;;;;;;10.28;100.00;99566.63;5003097;28;20128;-74
2023/10/13 00:52:32;;;;;;;0.38;0.38;;;;;;;10.29;100.00;99569.13;5021049;28;20099;-74
2023/10/13 00:54:59;;;;;;;0.30;0.30;;;;;;;10.30;100.00;99551.97;5002443;28;20029;-74
2023/10/13 00:57:29;;;;;;;0.30;0.30;;;;;;;10.34;100.00;99555.88;5018258;28;20440;-74
2023/10/13 00:59:57;;;;;;;0.32;0.32;;;;;;;10.36;100.00;99552.19;5002696;28;20030;-73
2023/10/13 01:02:37;;;;;;;0.30;0.30;;;;;;;10.34;100.00;99555.06;5002161;28;20029;-74
2023/10/13 01:05:07;;;;;;;0.32;0.32;;;;;;;10.35;100.00;99548.69;4987865;28;20032;-74
2023/10/13 01:07:37;;;;;;;0.32;0.32;;;;;;;10.37;100.00;99559.19;5018578;28;20419;-73
2023/10/13 01:10:06;;;;;;;0.40;0.40;;;;;;;10.35;100.00;99537.94;5002365;28;20491;-73
2023/10/13 01:12:32;;;;;;;0.30;0.30;;;;;;;10.37;100.00;99543.09;5002220;28;20448;-74
2023/10/13 01:14:59;;;;;;;0.38;0.38;;;;;;;10.36;100.00;99536.88;4985199;28;20029;-74
2023/10/13 01:17:31;;;;;;;0.40;0.40;;;;;;;10.34;100.00;99534.38;5002188;28;20477;-74
2023/10/13 01:20:00;;;;;;;0.30;0.30;;;;;;;10.33;100.00;99529.25;5018235;28;20481;-74
2023/10/13 01:22:28;;;;;;;0.30;0.30;;;;;;;10.29;100.00;99514.53;4985337;28;20564;-73
2023/10/13 01:25:04;;;;;;;0.40;0.40;;;;;;;10.32;100.00;99519.53;4985442;28;20041;-73
2023/10/13 01:27:30;;;;;;;0.40;0.40;;;;;;;10.31;100.00;99512.50;4986893;28;20037;-73
2023/10/13 01:30:05;;;;;;;0.40;0.40;;;;;;;10.33;100.00;99513.13;5017957;28;20037;-73
2023/10/13 01:32:31;;;;;;;0.40;0.40;;;;;;;10.33;100.00;99499.69;5002928;28;20060;-73
2023/10/13 01:34:58;;;;;;;0.30;0.30;;;;;;;10.31;100.00;99497.19;4985416;28;20021;-74
2023/10/13 01:37:25;;;;;;;0.35;0.35;;;;;;;10.30;100.00;99492.03;5001509;28;20031;-74
2023/10/13 01:39:56;;;;;;;0.40;0.40;;;;;;;10.27;100.00;99482.53;5001176;28;20108;-73
2023/10/13 01:42:23;;;;;;;0.40;0.40;;;;;;;10.24;100.00;99498.19;4985012;28;20465;-75
2023/10/13 01:44:49;;;;;;;0.30;0.30;;;;;;;10.20;100.00;99494.25;4985044;28;20448;-73
2023/10/13 01:47:19;;;;;;;0.30;0.30;;;;;;;10.19;100.00;99495.28;4985235;28;20033;-73
2023/10/13 01:49:49;;;;;;;0.30;0.30;;;;;;;10.09;100.00;99466.97;4985493;28;20037;-74
2023/10/13 01:52:16;;;;;;;0.40;0.40;;;;;;;10.20;100.00;99480.84;4985393;28;20037;-73
2023/10/13 01:54:44;;;;;;;0.40;0.40;;;;;;;10.19;100.00;99479.16;5000587;28;20029;-73
2023/10/13 01:57:19;;;;;;;0.40;0.40;;;;;;;10.19;100.00;99473.78;5016919;28;20083;-73
2023/10/13 01:59:48;;;;;;;0.40;0.40;;;;;;;10.04;100.00;99474.00;5001469;28;20030;-74
2023/10/13 02:02:28;;;;;;;0.40;0.40;;;;;;;9.89;100.00;99468.78;5001008;28;20037;-74
2023/10/13 02:05:04;;;;;;;0.30;0.30;;;;;;;9.79;100.00;99476.38;5001718;28;20064;-73
2023/10/13 02:07:31;;;;;;;0.30;0.30;;;;;;;9.71;100.00;99474.72;5034385;28;20389;-73
2023/10/13 02:10:04;;;;;;;0.40;0.40;;;;;;;9.65;100.00;99462.94;4985020;28;20116;-73
2023/10/13 02:12:37;;;;;;;0.40;0.40;;;;;;;9.62;100.00;99465.19;5001304;28;20029;-73
2023/10/13 02:15:04;;;;;;;0.40;0.40;;;;;;;9.59;100.00;99463.75;5000613;28;20076;-73
2023/10/13 02:17:41;;;;;;;0.30;0.30;;;;;;;9.56;100.00;99460.66;5016987;28;20104;-76
2023/10/13 02:20:10;;;;;;;0.38;0.38;;;;;;;9.49;100.00;99446.38;4985777;28;20488;-73
2023/10/13 02:22:38;;;;;;;0.38;0.38;;;;;;;9.45;100.00;99446.78;4984872;28;20044;-73
2023/10/13 02:25:16;;;;;;;0.30;0.30;;;;;;;9.41;100.00;99456.22;5000169;28;20029;-74
2023/10/13 02:27:48;;;;;;;0.40;0.40;;;;;;;9.39;100.00;99462.81;5000846;28;20036;-73
2023/10/13 02:30:14;;;;;;;0.30;0.30;;;;;;;9.33;100.00;99458.28;4985009;28;20071;-75
2023/10/13 02:32:46;;;;;;;0.40;0.40;;;;;;;9.27;100.00;99461.75;5000648;28;20026;-73
2023/10/13 02:35:17;;;;;;;0.40;0.40;;;;;;;9.22;100.00;99462.34;4999169;28;20038;-73
2023/10/13 02:37:44;;;;;;;0.40;0.40;;;;;;;9.16;100.00;99457.78;5016439;28;20033;-74
2023/10/13 02:40:11;;;;;;;0.30;0.30;;;;;;;9.11;100.00;99454.88;5000890;28;20052;-75
2023/10/13 02:42:39;;;;;;;0.40;0.40;;;;;;;9.05;100.00;99451.13;4967798;28;20037;-73
2023/10/13 02:45:08;;;;;;;0.40;0.40;;;;;;;9.05;100.00;99439.56;4983907;28;20155;-73
2023/10/13 02:47:39;;;;;;;0.40;0.40;;;;;;;9.03;100.00;99431.72;5016106;28;20374;-73
2023/10/13 02:50:12;;;;;;;0.30;0.30;;;;;;;9.02;100.00;99430.91;4984186;28;20045;-73
2023/10/13 02:52:41;;;;;;;0.40;0.40;;;;;;;8.98;100.00;99432.31;4984520;28;20038;-73
2023/10/13 02:55:14;;;;;;;0.40;0.40;;;;;;;8.98;100.00;99428.81;5000450;28;20061;-73
2023/10/13 02:57:43;;;;;;;0.40;0.40;;;;;;;8.98;100.00;99440.34;5000760;28;20049;-73
2023/10/13 03:00:15;;;;;;;0.40;0.40;;;;;;;8.96;100.00;99433.53;4999864;28;20030;-73
2023/10/13 03:02:58;;;;;;;0.40;0.40;;;;;;;8.99;100.00;99431.28;5001542;28;20040;-73
2023/10/13 03:05:28;;;;;;;0.40;0.40;;;;;;;8.97;100.00;99428.00;5016239;28;20489;-73
2023/10/13 03:07:55;;;;;;;0.40;0.40;;;;;;;9.00;100.00;99429.44;5000503;28;20045;-73
2023/10/13 03:10:21;;;;;;;0.40;0.40;;;;;;;8.98;100.00;99429.63;4983934;28;20041;-73
2023/10/13 03:12:51;;;;;;;0.40;0.40;;;;;;;9.01;100.00;99436.44;5000079;28;20066;-74
2023/10/13 03:15:35;;;;;;;0.32;0.32;;;;;;;9.01;100.00;99433.78;5001019;28;20049;-74
2023/10/13 03:18:02;;;;;;;0.40;0.40;;;;;;;9.01;100.00;99437.28;5015932;28;20393;-73
2023/10/13 03:20:31;;;;;;;0.40;0.40;;;;;;;8.97;100.00;99417.25;5032496;28;20030;-73
2023/10/13 03:23:09;;;;;;;0.40;0.40;;;;;;;8.96;100.00;99415.59;5032353;28;20090;-73
2023/10/13 03:25:42;;;;;;;0.40;0.40;;;;;;;8.96;100.00;99420.13;4999925;28;20057;-73
2023/10/13 03:28:13;;;;;;;0.40;0.40;;;;;;;8.97;100.00;99428.00;5016839;28;20385;-73
2023/10/13 03:30:43;;;;;;;0.32;0.32;;;;;;;9.02;100.00;99427.38;4999988;28;20112;-73
2023/10/13 03:33:13;;;;;;;0.38;0.38;;;;;;;8.99;100.00;99430.44;4983026;28;20536;-73
2023/10/13 03:35:42;;;;;;;0.40;0.40;;;;;;;8.98;100.00;99436.84;4999471;28;20033;-73
2023/10/13 03:38:18;;;;;;;0.40;0.40;;;;;;;8.95;100.00;99440.75;5015731;28;20022;-74
2023/10/13 03:40:48;;;;;;;0.40;0.40;;;;;;;8.94;100.00;99438.25;4986429;28;20036;-73
2023/10/13 03:43:21;;;;;;;0.40;0.40;;;;;;;8.90;100.00;99437.84;4999209;28;20057;-73
2023/10/13 03:45:52;;;;;;;0.40;0.40;;;;;;;8.85;100.00;99434.09;5015388;28;20064;-73
2023/10/13 03:48:51;;;;;;;0.40;0.40;;;;;;;8.84;100.00;99429.75;5002435;28;20045;-73
2023/10/13 03:51:16;;;;;;;0.40;0.40;;;;;;;8.82;100.00;99429.13;5021211;28;20389;-73
2023/10/13 03:53:53;;;;;;;0.30;0.30;;;;;;;8.73;100.00;99423.94;5006103;28;20489;-73
2023/10/13 03:56:26;;;;;;;0.40;0.40;;;;;;;8.74;100.00;99435.47;5004253;28;20095;-73
2023/10/13 03:58:58;;;;;;;0.40;0.40;;;;;;;8.71;100.00;99431.34;5003626;28;20043;-73
2023/10/13 04:07:13;;;;;;;0.40;0.40;;;;;;;8.52;100.00;99430.19;5006360;28;20026;-73
2023/10/13 04:17:27;;;;;;;0.40;0.40;;;;;;;8.43;100.00;99427.81;5005602;28;20091;-74
2023/10/13 04:33:44;;;;;;;0.35;0.35;;;;;;;8.29;100.00;99416.97;5005071;28;20037;-74
2023/10/13 04:36:14;;;;;;;0.40;0.40;;;;;;;8.32;100.00;99432.66;5021267;28;20033;-73
2023/10/13 04:47:09;;;;;;;0.40;0.40;;;;;;;8.27;100.00;99434.25;5021554;28;20029;-74
2023/10/13 04:54:53;;;;;;;0.40;0.40;;;;;;;8.23;100.00;99449.91;5019020;28;20120;-73
2023/10/13 05:03:01;;;;;;;0.40;0.40;;;;;;;8.15;100.00;99448.19;5003919;28;20041;-74
2023/10/13 06:29:19;;;;;;;0.40;0.40;;;;;;;6.80;100.00;99421.94;5019080;28;20037;-74
2023/10/13 06:31:48;;;;;;;0.50;0.50;;;;;;;6.83;100.00;99432.25;4999649;28;20040;-74
2023/10/13 06:34:20;;;;;;;0.40;0.40;;;;;;;6.83;100.00;99440.28;5001005;28;20029;-76
2023/10/13 06:36:54;;;;;;;0.40;0.40;;;;;;;6.81;100.00;99444.13;5001185;28;20033;-74
2023/10/13 06:39:37;;;;;;;0.40;0.40;;;;;;;6.72;100.00;99442.56;5000710;28;20029;-74
2023/10/13 06:42:02;;;;;;;;;;;;;;;6.73;100.00;99454.91;4986845;28;20034;-74
2023/10/13 06:44:32;;;;;;;0.47;0.47;;;;;;;6.73;100.00;99466.41;4983865;28;20103;-76
2023/10/13 06:47:00;;;;;;;0.40;0.40;;;;;;;6.69;100.00;99470.44;4984213;28;20033;-74
2023/10/13 06:49:29;;;;;;;0.40;0.40;;;;;;;6.71;100.00;99470.28;4999682;28;20033;-75
2023/10/13 06:52:00;;;;;;;0.40;0.40;;;;;;;6.82;100.00;99489.34;4998676;28;20481;-75
2023/10/13 06:54:28;;;;;;;0.40;0.40;;;;;;;6.91;100.00;99487.44;4983586;28;20520;-74
2023/10/13 06:56:54;;;;;;;0.40;0.40;;;;;;;7.01;100.00;99485.34;4982053;28;20037;-74
2023/10/13 06:59:26;;;;;;;0.40;0.40;;;;;;;7.09;100.00;99492.41;4983065;28;20377;-74
2023/10/13 07:01:52;;;;;;;0.40;0.40;;;;;;;7.15;100.00;99501.56;5000903;28;20029;-74
2023/10/13 07:04:18;;;;;;;0.45;0.45;;;;;;;7.20;100.00;99509.88;4999417;28;20036;-74
2023/10/13 07:06:50;;;;;;;0.40;0.40;;;;;;;7.28;100.00;99517.78;5032175;28;20029;-74
2023/10/13 07:12:22;;;;;;;0.40;0.40;;;;;;;7.45;100.00;99526.44;5018135;28;20124;-74
2023/10/13 07:14:52;;;;;;;0.40;0.40;;;;;;;7.47;100.00;99532.44;4986092;28;20491;-75
2023/10/13 07:17:23;;;;;;;0.40;0.40;;;;;;;7.59;100.00;99549.66;4999671;28;20037;-75
2023/10/13 07:19:53;;;;;;;0.40;0.40;;;;;;;7.62;100.00;99548.44;4999973;28;20270;-75
2023/10/13 07:22:21;;;;;;;0.40;0.40;;;;;;;7.65;100.00;99556.97;5015254;28;20025;-76
2023/10/13 07:24:52;;;;;;;0.40;0.40;;;;;;;7.69;100.00;99558.22;4999345;28;20481;-75
2023/10/13 07:27:23;;;;;;;0.40;0.40;;;;;;;7.78;100.00;99572.34;4999687;28;20042;-74
2023/10/13 07:30:13;;;;;;;0.40;0.40;;;;;;;7.83;100.00;99571.75;4983227;28;20030;-74
2023/10/13 07:32:44;;;;;;;0.40;0.40;;;;;;;7.90;100.00;99568.16;4998933;28;20048;-75
2023/10/13 07:35:20;;;;;;;0.40;0.40;;;;;;;7.95;100.00;99569.47;4968643;28;20037;-74
2023/10/13 07:37:52;;;;;;;0.40;0.40;;;;;;;8.00;100.00;99583.09;4999459;28;20029;-74
2023/10/13 07:43:09;;;;;;;0.40;0.40;;;;;;;8.05;100.00;99588.72;5017452;28;20107;-75
2023/10/13 07:45:40;;;;;;;0.40;0.40;;;;;;;8.07;100.00;99594.69;4986616;28;20029;-74
2023/10/13 07:48:28;;;;;;;0.40;0.40;;;;;;;8.05;100.00;99589.56;4983006;28;20118;-74
2023/10/13 07:51:03;;;;;;;0.40;0.40;;;;;;;8.18;100.00;99599.59;5001246;28;20061;-74
2023/10/13 07:53:37;;;;;;;0.40;0.40;;;;;;;8.27;100.00;99595.75;5015362;28;20038;-74
2023/10/13 07:56:05;;;;;;;0.40;0.40;;;;;;;8.32;100.00;99598.72;4999752;28;20037;-74
2023/10/13 07:58:47;;;;;;;0.40;0.40;;;;;;;8.43;100.00;99609.97;4982931;28;20033;-74
2023/10/13 08:01:19;;;;;;;0.40;0.40;;;;;;;8.48;100.00;99615.59;5001880;28;20041;-74
2023/10/13 08:03:57;;;;;;;0.40;0.40;;;;;;;8.58;100.00;99624.16;4999170;28;20063;-74
2023/10/13 08:06:26;;;;;;;0.40;0.40;;;;;;;8.68;100.00;99627.34;4983873;28;20385;-74
2023/10/13 08:08:56;;;;;;;0.45;0.45;;;;;;;8.75;100.00;99632.75;4999613;28;20065;-74
2023/10/13 08:11:24;;;;;;;0.40;0.40;;;;;;;8.82;100.00;99635.53;4999734;28;20085;-74
2023/10/13 08:13:58;;;;;;;0.40;0.40;;;;;;;8.88;100.00;99642.78;4999257;28;20132;-74
2023/10/13 08:19:15;;;;;;;0.40;0.40;;;;;;;8.86;100.00;99648.31;5017860;28;20029;-74
2023/10/13 08:21:49;;;;;;;0.40;0.40;;;;;;;8.93;100.00;99651.91;4999389;28;20099;-75
2023/10/13 08:27:33;;;;;;;0.50;0.50;;;;;;;9.11;100.00;99656.81;5015529;28;20030;-75
2023/10/13 08:30:26;;;;;;;0.40;0.40;;;;;;;9.33;100.00;99667.50;5002775;28;20477;-74
2023/10/13 08:32:58;;;;;;;0.40;0.40;;;;;;;9.42;100.00;99660.97;5015211;28;20048;-74
2023/10/13 08:35:34;;;;;;;0.40;0.40;;;;;;;9.52;100.00;99666.81;4986633;28;20033;-74
2023/10/13 08:38:04;;;;;;;0.40;0.40;;;;;;;9.56;100.00;99665.41;5018864;28;20033;-75
2023/10/13 08:43:16;;;;;;;0.47;0.47;;;;;;;9.55;100.00;99679.88;5021450;28;20029;-75
2023/10/13 08:45:53;;;;;;;0.40;0.40;;;;;;;9.60;100.00;99672.03;5002049;28;20498;-74
2023/10/13 08:48:26;;;;;;;0.40;0.40;;;;;;;9.68;100.00;99674.59;5001186;28;20037;-75
2023/10/13 08:50:52;;;;;;;0.40;0.40;;;;;;;9.61;100.00;99687.13;5017266;28;20037;-74
2023/10/13 08:53:31;;;;;;;0.40;0.40;;;;;;;9.55;100.00;99687.06;5018337;28;20063;-75
2023/10/13 08:56:15;;;;;;;0.40;0.40;;;;;;;9.52;100.00;99684.78;5002329;28;20054;-74
2023/10/13 09:14:57;;;;;;;0.40;0.40;;;;;;;9.49;100.00;99707.47;5001743;28;20394;-74
2023/10/13 09:20:19;;;;;;;0.50;0.50;;;;;;;10.05;100.00;99712.78;5017921;28;20399;-74
2023/10/13 09:25:35;;;;;;;0.40;0.40;;;;;;;10.54;100.00;99717.19;5018734;28;20065;-74
2023/10/13 09:28:21;;;;;;;0.40;0.40;;;;;;;10.77;100.00;99716.88;5002655;28;20565;-74
2023/10/13 09:30:49;;;;;;;0.40;0.40;;;;;;;11.09;100.00;99729.78;5001870;28;20141;-73
2023/10/13 09:33:50;;;;;;;0.40;0.40;;;;;;;11.20;100.00;99726.47;5001146;28;20032;-74
2023/10/13 09:36:19;;;;;;;0.40;0.40;;;;;;;11.35;100.00;99732.50;5005038;28;20056;-74
2023/10/13 09:39:10;;;;;;;0.40;0.40;;;;;;;11.34;100.00;99728.13;5001528;28;20072;-74
2023/10/13 09:41:33;;;;;;;0.45;0.45;;;;;;;11.30;100.00;99737.66;5004150;28;20033;-74
2023/10/13 09:43:59;;;;;;;0.40;0.40;;;;;;;11.32;100.00;99743.66;4985330;28;20037;-73
2023/10/13 09:46:28;;;;;;;0.47;0.47;;;;;;;11.34;100.00;99746.97;4985157;28;20036;-73
2023/10/13 09:49:06;;;;;;;0.50;0.50;;;;;;;11.53;100.00;99749.88;5034143;28;20056;-74
2023/10/13 09:51:31;;;;;;;0.50;0.50;;;;;;;11.80;100.00;99761.47;5002075;28;20029;-74
2023/10/13 09:54:07;;;;;;;0.50;0.50;;;;;;;12.05;100.00;99769.78;4985463;28;20044;-74
2023/10/13 09:56:51;;;;;;;0.40;0.40;;;;;;;12.22;100.00;99765.59;5017536;28;20022;-74
2023/10/13 09:59:20;;;;;;;0.40;0.40;;;;;;;12.32;100.00;99768.66;5001042;28;20037;-74
2023/10/13 10:01:58;;;;;;;0.50;0.50;;;;;;;12.35;100.00;99766.59;5017550;28;20045;-74
2023/10/13 10:04:24;;;;;;;0.40;0.40;;;;;;;12.39;100.00;99778.63;5002295;28;20075;-74
2023/10/13 10:06:53;;;;;;;0.50;0.50;;;;;;;12.64;100.00;99786.84;5000646;28;20029;-74
2023/10/13 10:09:22;;;;;;;0.50;0.50;;;;;;;12.94;100.00;99779.03;5017325;28;20049;-74
2023/10/13 10:12:18;;;;;;;0.45;0.45;;;;;;;12.91;100.00;99777.59;4985204;28;20125;-74
2023/10/13 10:15:06;;;;;;;0.40;0.40;;;;;;;12.45;100.00;99785.88;5034555;28;20049;-74
2023/10/13 10:17:42;;;;;;;0.40;0.40;;;;;;;11.98;100.00;99798.59;5000700;28;20034;-74
2023/10/13 10:20:30;;;;;;;0.40;0.40;;;;;;;11.80;100.00;99802.72;5000751;28;20036;-73
2023/10/13 10:23:00;;;;;;;0.43;0.43;;;;;;;11.80;100.00;99804.56;5017131;28;20199;-74
2023/10/13 10:25:35;;;;;;;0.40;0.40;;;;;;;11.55;100.00;99804.34;5016391;28;20120;-74
2023/10/13 10:28:06;;;;;;;0.50;0.50;;;;;;;13.30;100.00;99791.94;5000365;28;20444;-72
2023/10/13 10:30:38;;;;;;;0.50;0.50;;;;;;;13.89;100.00;99794.41;5000724;28;20026;-72
2023/10/13 10:33:12;;;;;;;0.50;0.50;;;;;;;14.36;100.00;99795.63;5000631;28;20477;-72
2023/10/13 10:35:40;;;;;;;0.50;0.50;;;;;;;14.48;100.00;99796.53;4985256;28;20500;-72
2023/10/13 10:38:24;;;;;;;0.50;0.50;;;;;;;14.42;100.00;99802.00;5017057;28;20084;-72
2023/10/13 10:41:04;;;;;;;0.60;0.60;;;;;;;14.76;100.00;99805.22;5000852;28;20029;-72
2023/10/13 10:43:42;;;;;;;0.50;0.50;;;;;;;14.86;100.00;99810.91;5000324;28;20135;-72
2023/10/13 10:46:12;;;;;;;0.50;0.50;;;;;;;14.89;100.00;99810.47;5000331;28;20473;-72
2023/10/13 10:48:42;;;;;;;0.50;0.50;;;;;;;14.83;100.00;99814.91;5016174;28;20112;-72
2023/10/13 10:51:14;;;;;;;0.52;0.52;;;;;;;14.70;100.00;99815.88;5001239;28;20315;-72
2023/10/13 10:53:43;;;;;;;0.50;0.50;;;;;;;14.63;100.00;99817.00;5000412;28;20049;-72
2023/10/13 10:56:25;;;;;;;0.50;0.50;;;;;;;14.51;100.00;99815.03;4984850;28;20045;-71
2023/10/13 10:58:56;;;;;;;0.47;0.47;;;;;;;14.02;100.00;99810.50;5018360;28;20041;-71
2023/10/13 11:01:33;;;;;;;0.40;0.40;;;;;;;14.12;100.00;99810.00;5000163;28;20088;-71
2023/10/13 11:06:56;;;;;;;0.55;0.55;;;;;;;14.25;100.00;99818.00;4980294;28;20061;-72
2023/10/13 11:09:31;;;;;;;0.70;0.70;;;;;;;14.46;100.00;99828.38;4999700;28;20042;-73
2023/10/13 11:12:04;;;;;;;0.52;0.52;;;;;;;14.70;100.00;99824.00;5014150;28;20031;-72
2023/10/13 11:14:29;;;;;;;0.40;0.40;;;;;;;14.23;100.00;99825.50;4998324;28;20029;-72
2023/10/13 11:17:00;;;;;;;0.50;0.50;;;;;;;14.49;100.00;99841.47;4982423;28;20037;-73
2023/10/13 11:19:43;;;;;;;0.80;0.80;;;;;;;14.93;100.00;99836.84;4999311;28;20111;-74
2023/10/13 11:25:11;;;;;;;0.50;0.50;;;;;;;13.94;100.00;99833.22;5001734;28;20021;-74
2023/10/13 11:30:19;;;;;;;;;;;;;;;13.67;100.00;99845.31;5016538;28;20397;-73
2023/10/13 11:32:56;;;;;;;0.30;0.30;;;;;;;12.75;100.00;99837.41;4999994;28;19917;-73
2023/10/13 11:35:25;;;;;;;0.40;0.40;;;;;;;12.19;100.00;99840.66;5015330;28;20057;-73
2023/10/13 11:38:03;;;;;;;1.10;1.10;;;;;;;12.73;100.00;99853.81;5015842;28;20033;-76
2023/10/13 11:46:55;;;;;;;0.47;0.47;;;;;;;12.86;100.00;99863.75;4971909;28;19964;-76
2023/10/13 11:51:47;;;;;;;0.43;0.43;;;;;;;13.08;100.00;99861.59;5016318;28;20029;-76
2023/10/13 11:54:15;;;;;;;0.52;0.52;;;;;;;13.27;100.00;99861.75;5031776;28;20473;-75
2023/10/13 11:56:41;;;;;;;0.57;0.57;;;;;;;13.73;100.00;99855.22;5015277;28;20083;-76
2023/10/13 11:59:15;;;;;;;0.50;0.50;;;;;;;14.30;100.00;99854.13;4999338;28;20124;-76
2023/10/13 12:07:23;;;;;;;1.50;1.50;;;;;;;15.01;100.00;99864.69;5014586;28;20029;-74
2023/10/13 12:12:26;;;;;;;0.52;0.52;;;;;;;14.51;100.00;99874.53;5002662;28;20133;-74
2023/10/13 12:14:56;;;;;;;0.95;0.95;;;;;;;14.29;100.00;99876.00;5002748;28;20366;-73
2023/10/13 12:17:34;;;;;;;0.50;0.50;;;;;;;14.17;100.00;99867.78;5002850;28;20575;-74
2023/10/13 12:20:32;;;;;;;0.50;0.50;;;;;;;14.62;100.00;99872.19;5003117;28;20037;-73
2023/10/13 12:23:09;;;;;;;0.50;0.50;;;;;;;15.15;100.00;99869.69;5018934;28;20053;-74
2023/10/13 12:26:00;;;;;;;0.30;0.30;;;;;;;14.05;100.00;99869.53;5018290;28;20025;-73
2023/10/13 12:28:26;;;;;;;0.50;0.50;;;;;;;13.20;100.00;99862.56;5004722;28;20132;-73
2023/10/13 12:30:53;;;;;;;0.68;0.68;;;;;;;13.79;100.00;99882.22;5002362;28;20037;-73
2023/10/13 12:33:36;;;;;;;0.50;0.50;;;;;;;14.44;100.00;99876.47;5018733;28;20029;-73
2023/10/13 12:36:06;;;;;;;0.40;0.40;;;;;;;14.86;100.00;99871.28;5002533;28;20473;-73
2023/10/13 12:52:32;;;;;;;0.40;0.40;;;;;;;14.40;87.24;99883.38;5005339;28;20095;-73
2023/10/13 12:57:24;;;;;;;0.50;0.50;;;;;;;15.09;100.00;99886.03;5018023;28;20504;-74
2023/10/13 12:59:53;;;;;;;0.40;0.40;;;;;;;16.01;68.95;99883.13;5002150;28;20045;-73
2023/10/13 13:02:26;;;;;;;11.88;2.45;;;;;;;16.35;66.53;99886.09;5017843;28;20037;-74
2023/10/13 13:05:05;;;;;;;6.05;2.20;;;;;;;16.57;74.88;99887.16;5016101;28;20478;-74
2023/10/13 13:07:32;;;;;;;6.28;1.35;;;;;;;16.73;61.15;99906.50;5003355;28;20105;-74
2023/10/13 13:10:06;;;;;;;9.48;1.90;;;;;;;17.04;68.39;99895.28;4987334;28;20044;-73
2023/10/13 13:12:35;;;;;;;5.75;1.40;;;;;;;17.19;60.42;99902.09;5002263;28;20026;-75
2023/10/13 13:15:08;;;;;;;6.07;1.70;;;;;;;17.13;62.24;99907.41;4985449;28;20037;-75
2023/10/13 13:17:38;;;;;;;4.82;1.80;;;;;;;17.23;52.31;99901.38;5002378;28;20034;-74
2023/10/13 13:20:25;;;;;;;4.25;1.42;;;;;;;17.53;59.80;99912.03;5001265;28;20033;-74
2023/10/13 13:22:53;;;;;;;6.43;1.88;;;;;;;17.56;53.47;99916.16;5020171;28;20027;-73
2023/10/13 13:25:25;;;;;;;6.35;1.88;;;;;;;17.89;57.18;99914.59;5034132;28;20377;-73
2023/10/13 13:27:50;;;;;;;4.25;1.63;;;;;;;18.37;50.70;99926.88;4986445;28;20041;-73
2023/10/13 13:30:19;;;;;;;5.25;2.33;;;;;;;17.48;49.82;99924.69;4985148;28;20489;-75
2023/10/13 13:32:45;;;;;;;7.90;1.90;;;;;;;18.78;47.22;99922.88;5001675;28;20250;-74
2023/10/13 13:35:13;;;;;;;12.20;3.78;;;;;;;18.51;53.46;99916.47;5016915;28;20392;-75
2023/10/13 13:37:39;;;;;;;9.50;1.83;;;;;;;17.34;56.96;99945.88;5033760;28;20128;-75
2023/10/13 13:40:15;;;;;;;5.43;1.50;;;;;;;16.46;51.35;99931.41;4984960;28;20266;-75
2023/10/13 13:42:43;;;;;;;3.47;1.67;;;;;;;15.95;53.72;99949.09;5000679;28;20109;-74
2023/10/13 13:45:21;;;;;;;6.25;1.88;;;;;;;15.94;58.28;99953.69;5001407;28;20044;-74
2023/10/13 13:47:53;;;;;;;12.57;2.03;;;;;;;14.99;63.00;99972.34;5002200;28;20531;-75
2023/10/13 13:50:39;;;;;;;6.72;1.67;;;;;;;14.48;66.66;99975.06;5000680;28;20490;-73
2023/10/13 13:53:11;;;;;;;10.05;1.90;;;;;;;14.10;77.51;99972.41;5000901;28;20048;-74
2023/10/13 13:55:39;;;;;;;5.80;1.42;;;;;;;13.96;80.47;99971.69;4985298;28;20033;-74
2023/10/13 13:58:08;;;;;;;5.53;1.58;;;;;;;14.46;77.02;99979.03;5001444;28;20041;-74
2023/10/13 14:00:48;;;;;;;12.10;2.55;;;;;;;16.62;70.80;99976.03;5016971;28;20029;-74
2023/10/13 14:03:30;;;;;;;6.43;1.65;;;;;;;17.68;54.21;99973.22;5002476;28;20037;-75
2023/10/13 14:06:01;;;;;;;7.45;1.50;;;;;;;18.14;59.22;99980.34;5000520;28;20040;-75
2023/10/13 14:08:29;;;;;;;5.20;1.50;;;;;;;18.65;57.34;99975.75;4984052;28;20588;-75
2023/10/13 14:11:21;;;;;;;5.80;2.08;;;;;;;19.08;51.94;99974.28;4985110;28;20504;-75
2023/10/13 14:13:48;;;;;;;4.85;1.70;;;;;;;19.90;52.42;99985.38;4999926;28;20366;-76
2023/10/13 14:16:17;;;;;;;5.35;1.90;;;;;;;20.78;56.97;99980.47;5001343;28;20122;-75
2023/10/13 14:18:47;;;;;;;8.85;1.83;;;;;;;18.63;57.20;99985.28;5017012;28;20045;-76
2023/10/13 14:21:19;;;;;;;4.97;1.60;;;;;;;17.31;51.09;99989.84;4984559;28;20521;-75
2023/10/13 14:23:45;;;;;;;5.07;1.25;;;;;;;17.61;48.84;99994.25;5017496;28;20115;-75
2023/10/13 14:26:15;;;;;;;5.82;1.40;;;;;;;18.71;45.28;99992.19;5016545;28;20164;-75
2023/10/13 14:28:51;;;;;;;5.90;1.45;;;;;;;19.51;44.95;99989.00;5000902;28;20124;-74
2023/10/13 14:31:18;;;;;;;6.97;1.77;;;;;;;19.75;41.32;99995.03;5016123;28;20086;-76
2023/10/13 14:33:47;;;;;;;4.82;1.40;;;;;;;18.63;50.19;100004.34;5016083;28;20041;-75
2023/10/13 14:36:13;;;;;;;7.35;1.45;;;;;;;15.61;53.22;100001.03;5000389;28;20051;-75
2023/10/13 14:38:44;;;;;;;7.95;1.42;;;;;;;14.92;58.30;100016.56;5016312;28;20033;-75
2023/10/13 14:41:10;;;;;;;6.43;1.58;;;;;;;17.17;53.82;100021.03;4984722;28;20037;-75
2023/10/13 14:43:35;;;;;;;6.32;1.40;;;;;;;18.07;46.77;100025.09;4982776;28;20067;-75
2023/10/13 14:46:01;;;;;;;2.50;1.08;;;;;;;18.42;47.21;100028.47;5014384;28;20041;-76
2023/10/13 14:48:27;;;;;;;6.47;2.53;;;;;;;18.78;47.52;100031.81;4981947;28;20036;-76
2023/10/13 14:50:52;;;;;;;8.25;2.53;;;;;;;19.06;46.95;100021.91;5015184;28;20108;-75
2023/10/13 14:53:21;;;;;;;8.30;2.08;;;;;;;18.95;44.31;100023.66;4998797;28;20051;-75
2023/10/13 14:55:47;;;;;;;3.80;1.63;;;;;;;19.26;46.28;100019.47;5014773;28;20037;-76
2023/10/13 14:58:16;;;;;;;5.20;1.35;;;;;;;19.24;43.67;100024.38;4999199;28;20041;-76
2023/10/13 15:00:45;;;;;;;3.47;1.38;;;;;;;18.92;42.78;100023.31;4983873;28;20037;-75
2023/10/13 15:03:14;;;;;;;5.82;1.60;;;;;;;18.95;42.10;100017.41;5015862;28;20079;-76
2023/10/13 15:05:43;;;;;;;2.28;1.15;;;;;;;18.79;43.30;100041.66;4983891;28;20525;-76
2023/10/13 15:08:09;;;;;;;5.72;1.50;;;;;;;18.86;43.29;100034.13;4983459;28;20489;-75
2023/10/13 15:10:36;;;;;;;5.60;1.60;;;;;;;17.53;46.14;100042.50;4999723;28;20124;-75
2023/10/13 15:13:05;;;;;;;4.78;1.65;;;;;;;14.62;55.23;100046.16;5016276;28;20072;-75
2023/10/13 15:15:32;;;;;;;7.25;1.20;;;;;;;13.16;63.16;100052.97;4983491;28;20075;-75
2023/10/13 15:18:00;;;;;;;4.53;1.40;;;;;;;15.26;56.38;100046.84;5000388;28;20025;-75
2023/10/13 15:20:26;;;;;;;4.80;1.90;;;;;;;17.13;48.53;100062.25;4999025;28;20116;-76
2023/10/13 15:22:59;;;;;;;3.40;1.05;;;;;;;17.63;46.02;100060.09;5015579;28;20121;-75
2023/10/13 15:25:31;;;;;;;4.53;1.20;;;;;;;17.95;46.26;100066.78;4983490;28;20031;-75